Terminal Aerodrome Forecast
Issued by NWS

Home | Current Version | Previous Version | Text Only | Print | Product List | Glossary On
Versions: 1 2 3 4 5 6 7 8 9 10 11
331
FTUS44 KTSA 252338
TAFXNA
TAF
KXNA 252338Z 2600/2624 19014G23KT P6SM BKN050 BKN250
     FM260200 18012G18KT P6SM BKN035 BKN250
     FM260500 19012KT P6SM VCTS BKN035CB BKN250
      TEMPO 2606/2609 VRB15G30KT 2SM TSRA BKN025CB
     FM260900 28009KT 4SM -SHRA VCTS SCT008 BKN025CB
     FM261600 31011G19KT P6SM VCSH BKN008 BKN012
     FM262200 32012G20KT P6SM BKN012=

USA.gov is the U.S. government's official web portal to all federal, state and local government web resources and services.